createdAt,value
2022-08-30T00:00:09.906Z,100432.53
2022-08-30T00:00:46.752Z,100442.50
2022-08-30T00:01:27.619Z,100439.13
2022-08-30T00:02:05.205Z,100437.16
2022-08-30T00:02:42.907Z,100437.34
2022-08-30T00:03:20.874Z,100432.81
2022-08-30T00:03:58.069Z,100436.47
2022-08-30T00:04:35.858Z,100447.31
2022-08-30T00:05:13.926Z,100443.66
2022-08-30T00:05:51.201Z,100443.66
2022-08-30T00:06:28.548Z,100449.00
2022-08-30T00:07:05.809Z,100443.78
2022-08-30T00:07:43.421Z,100441.94
2022-08-30T00:08:21.241Z,100440.16
2022-08-30T00:08:59.071Z,100449.84
2022-08-30T00:09:37.252Z,100441.13
2022-08-30T00:10:15.922Z,100445.50
2022-08-30T00:10:54.024Z,100449.84
2022-08-30T00:11:34.095Z,100445.50
2022-08-30T00:12:17.926Z,100438.31
2022-08-30T00:13:04.265Z,100438.16
2022-08-30T00:13:50.478Z,100439.13
2022-08-30T00:14:34.718Z,100435.63
2022-08-30T00:15:13.325Z,100438.16
2022-08-30T00:15:50.802Z,100433.78
2022-08-30T00:16:28.133Z,100432.13
2022-08-30T00:17:05.155Z,100437.34
2022-08-30T00:17:42.002Z,100432.81
2022-08-30T00:18:19.139Z,100438.31
2022-08-30T00:18:56.302Z,100434.66
2022-08-30T00:19:33.189Z,100426.78
2022-08-30T00:20:10.382Z,100430.28
2022-08-30T00:20:48.535Z,100437.47
2022-08-30T00:21:25.941Z,100428.72
2022-08-30T00:22:03.372Z,100429.88
2022-08-30T00:22:39.827Z,100425.50
2022-08-30T00:23:17.052Z,100428.16
2022-08-30T00:23:53.641Z,100436.31
2022-08-30T00:24:30.859Z,100428.31
2022-08-30T00:25:07.633Z,100436.31
2022-08-30T00:25:45.333Z,100436.19
2022-08-30T00:26:21.856Z,100430.97
2022-08-30T00:26:59.802Z,100427.34
2022-08-30T00:27:36.652Z,100434.66
2022-08-30T00:28:14.263Z,100434.34
2022-08-30T00:28:51.577Z,100428.88
2022-08-30T00:29:29.149Z,100431.53
2022-08-30T00:30:06.769Z,100431.53
2022-08-30T00:30:43.924Z,100428.03
2022-08-30T00:31:21.199Z,100428.16
2022-08-30T00:32:00.178Z,100423.50
2022-08-30T00:32:41.208Z,100421.84
2022-08-30T00:33:22.960Z,100423.78
2022-08-30T00:34:05.299Z,100424.66
2022-08-30T00:34:48.220Z,100425.34
2022-08-30T00:35:32.009Z,100426.19
2022-08-30T00:36:14.109Z,100426.19
2022-08-30T00:36:55.760Z,100427.19
2022-08-30T00:37:38.586Z,100429.00
2022-08-30T00:38:21.347Z,100421.84
2022-08-30T00:39:06.097Z,100424.53
2022-08-30T00:39:48.633Z,100428.88
2022-08-30T00:40:35.608Z,100421.72
2022-08-30T00:41:13.722Z,100421.72
2022-08-30T00:41:51.165Z,100423.66
2022-08-30T00:42:28.041Z,100421.13
2022-08-30T00:43:06.755Z,100425.50
2022-08-30T00:43:45.412Z,100422.00
2022-08-30T00:44:22.361Z,100422.00
2022-08-30T00:45:08.616Z,100423.66
2022-08-30T00:45:47.031Z,100418.63
2022-08-30T00:46:24.891Z,100423.97
2022-08-30T00:47:02.233Z,100420.28
2022-08-30T00:47:39.603Z,100424.66
2022-08-30T00:48:17.093Z,100422.97
2022-08-30T00:48:54.653Z,100428.44
2022-08-30T00:49:32.158Z,100422.13
2022-08-30T00:50:10.911Z,100419.44
2022-08-30T00:50:50.239Z,100422.00
2022-08-30T00:51:27.916Z,100421.84
2022-08-30T00:52:09.186Z,100418.44
2022-08-30T00:53:00.265Z,100420.28
2022-08-30T00:53:45.111Z,100422.81
2022-08-30T00:54:26.250Z,100428.31
2022-08-30T00:55:03.087Z,100414.94
2022-08-30T00:55:41.997Z,100424.53
2022-08-30T00:56:20.567Z,100422.00
2022-08-30T00:56:58.714Z,100434.34
2022-08-30T00:57:35.508Z,100422.69
2022-08-30T00:58:13.574Z,100424.66
2022-08-30T00:58:51.581Z,100423.97
2022-08-30T00:59:29.088Z,100422.25
2022-08-30T01:00:06.097Z,100427.34
2022-08-30T01:00:43.994Z,100432.81
2022-08-30T01:01:21.976Z,100429.13
2022-08-30T01:02:00.459Z,100423.97
2022-08-30T01:02:37.387Z,100427.34
2022-08-30T01:03:15.123Z,100430.97
2022-08-30T01:03:52.311Z,100432.69
2022-08-30T01:04:29.886Z,100425.63
2022-08-30T01:05:06.715Z,100426.63
2022-08-30T01:05:44.390Z,100429.31
2022-08-30T01:06:23.048Z,100428.44
2022-08-30T01:07:00.769Z,100431.25
2022-08-30T01:07:38.032Z,100432.13
2022-08-30T01:08:16.668Z,100431.97
2022-08-30T01:08:57.035Z,100422.25
2022-08-30T01:09:38.377Z,100432.41
2022-08-30T01:10:19.749Z,100426.31
2022-08-30T01:11:02.751Z,100430.69
2022-08-30T01:11:46.083Z,100433.22
2022-08-30T01:12:30.087Z,100439.53
2022-08-30T01:13:16.717Z,100436.88
2022-08-30T01:13:55.489Z,100436.59
2022-08-30T01:14:33.779Z,100435.75
2022-08-30T01:15:11.292Z,100437.59
2022-08-30T01:15:48.637Z,100438.28
2022-08-30T01:16:27.363Z,100440.00
2022-08-30T01:17:04.695Z,100441.66
2022-08-30T01:17:41.166Z,100438.03
2022-08-30T01:18:18.604Z,100440.84
2022-08-30T01:18:57.061Z,100435.63
2022-08-30T01:20:21.187Z,100444.47
2022-08-30T01:21:27.600Z,100432.25
2022-08-30T01:22:13.776Z,100425.06
2022-08-30T01:22:54.337Z,100430.28
2022-08-30T01:23:42.339Z,100431.25
2022-08-30T01:24:38.561Z,100438.28
2022-08-30T01:25:35.002Z,100421.44
2022-08-30T01:26:36.669Z,100437.59
2022-08-30T01:31:53.025Z,100433.50
2022-08-30T01:32:40.702Z,100436.16
2022-08-30T01:33:27.108Z,100426.47
2022-08-30T01:34:12.779Z,100435.47
2022-08-30T01:34:59.722Z,100434.59
2022-08-30T01:35:55.762Z,100429.25
2022-08-30T01:36:48.264Z,100430.84
2022-08-30T01:37:35.876Z,100432.66
2022-08-30T01:38:24.252Z,100424.50
2022-08-30T01:39:20.859Z,100428.03
2022-08-30T01:40:14.650Z,100431.53
2022-08-30T01:41:11.153Z,100429.00
2022-08-30T01:42:09.390Z,100430.56
2022-08-30T01:44:15.757Z,100428.03
2022-08-30T01:46:10.615Z,100438.44
2022-08-30T01:46:56.190Z,100440.28
2022-08-30T01:47:39.908Z,100441.38
2022-08-30T01:48:28.267Z,100441.25
2022-08-30T01:49:17.328Z,100444.06
2022-08-30T01:50:01.221Z,100438.72
2022-08-30T01:50:49.478Z,100436.72
2022-08-30T01:51:35.022Z,100436.72
2022-08-30T01:52:20.390Z,100430.56
2022-08-30T01:53:06.740Z,100436.59
2022-08-30T01:53:56.195Z,100437.59
2022-08-30T01:54:51.087Z,100441.94
2022-08-30T01:55:48.704Z,100435.75
2022-08-30T01:57:47.782Z,100439.53
2022-08-30T01:58:43.503Z,100434.19
2022-08-30T01:59:37.778Z,100439.81
2022-08-30T02:00:32.150Z,100438.97
2022-08-30T02:01:34.593Z,100436.31
2022-08-30T02:03:51.765Z,100430.00
2022-08-30T02:04:42.282Z,100436.31
2022-08-30T02:05:28.179Z,100432.66
2022-08-30T02:06:11.644Z,100437.88
2022-08-30T02:06:57.611Z,100429.13
2022-08-30T02:07:43.236Z,100435.19
2022-08-30T02:08:29.921Z,100444.19
2022-08-30T02:09:19.566Z,100443.34
2022-08-30T02:10:08.765Z,100443.34
2022-08-30T02:11:05.877Z,100443.34
2022-08-30T02:13:21.021Z,100447.69
2022-08-30T02:14:07.896Z,100454.03
2022-08-30T02:14:52.161Z,100443.22
2022-08-30T02:15:41.345Z,100449.53
2022-08-30T02:16:29.992Z,100451.38
2022-08-30T02:17:13.909Z,100444.19
2022-08-30T02:18:02.411Z,100447.69
2022-08-30T02:18:58.862Z,100447.56
2022-08-30T02:19:55.209Z,100450.09
2022-08-30T02:20:52.118Z,100448.44
2022-08-30T02:24:01.577Z,100451.25
2022-08-30T02:24:47.208Z,100450.63
2022-08-30T02:25:33.407Z,100448.41
2022-08-30T02:26:21.520Z,100446.16
2022-08-30T02:27:07.687Z,100442.50
2022-08-30T02:27:55.119Z,100444.31
2022-08-30T02:28:49.605Z,100439.94
2022-08-30T02:29:39.687Z,100438.97
2022-08-30T02:30:36.041Z,100445.31
2022-08-30T02:33:41.139Z,100435.75
2022-08-30T02:34:42.912Z,100441.09
2022-08-30T02:35:41.721Z,100441.09
2022-08-30T02:37:50.624Z,100437.72
2022-08-30T02:38:40.861Z,100433.34
2022-08-30T02:39:26.261Z,100437.72
2022-08-30T02:40:12.493Z,100431.38
2022-08-30T02:40:58.658Z,100435.75
2022-08-30T02:41:48.386Z,100436.44
2022-08-30T02:42:34.032Z,100433.78
2022-08-30T02:43:19.878Z,100436.44
2022-08-30T02:44:06.640Z,100433.78
2022-08-30T02:44:57.063Z,100432.94
2022-08-30T02:45:54.609Z,100433.78
2022-08-30T02:47:02.637Z,100425.47
2022-08-30T02:50:09.319Z,100420.41
2022-08-30T02:50:54.730Z,100420.41
2022-08-30T02:51:40.328Z,100424.78
2022-08-30T02:52:33.468Z,100411.44
2022-08-30T02:53:23.296Z,100418.75
2022-08-30T02:54:19.172Z,100417.75
2022-08-30T02:55:12.964Z,100419.72
2022-08-30T02:56:02.920Z,100424.94
2022-08-30T02:56:56.829Z,100424.78
2022-08-30T02:57:59.225Z,100423.09
2022-08-30T02:59:15.097Z,100425.63
2022-08-30T03:00:06.386Z,100424.78
2022-08-30T03:01:01.898Z,100426.75
2022-08-30T03:01:50.487Z,100430.41
2022-08-30T03:02:38.609Z,100423.34
2022-08-30T03:03:23.795Z,100426.03
2022-08-30T03:04:09.408Z,100416.34
2022-08-30T03:04:54.835Z,100423.34
2022-08-30T03:05:40.234Z,100422.38
2022-08-30T03:06:27.828Z,100428.56
2022-08-30T03:07:17.214Z,100420.56
2022-08-30T03:08:15.866Z,100421.41
2022-08-30T03:15:56.157Z,100429.84
2022-08-30T03:16:48.773Z,100420.00
2022-08-30T03:17:39.143Z,100427.88
2022-08-30T03:20:54.417Z,100420.25
2022-08-30T03:21:38.164Z,100424.38
2022-08-30T03:22:22.426Z,100427.03
2022-08-30T03:23:09.243Z,100424.38
2022-08-30T03:24:00.133Z,100422.38
2022-08-30T03:24:47.578Z,100423.34
2022-08-30T03:25:36.679Z,100419.16
2022-08-30T03:28:53.305Z,100415.63
2022-08-30T03:29:38.876Z,100407.47
2022-08-30T03:30:23.342Z,100416.34
2022-08-30T03:31:07.215Z,100411.00
2022-08-30T03:31:52.595Z,100412.13
2022-08-30T03:32:36.546Z,100417.31
2022-08-30T03:33:23.725Z,100417.31
2022-08-30T03:34:15.436Z,100421.69
2022-08-30T03:35:06.578Z,100421.09
2022-08-30T03:35:54.392Z,100421.69
2022-08-30T03:36:51.871Z,100421.69
2022-08-30T03:38:51.481Z,100420.69
2022-08-30T03:42:51.941Z,100419.72
2022-08-30T03:43:48.113Z,100415.47
2022-08-30T03:44:45.712Z,100416.50
2022-08-30T03:47:57.678Z,100407.59
2022-08-30T03:48:47.916Z,100418.16
2022-08-30T03:49:41.236Z,100418.28
2022-08-30T03:50:34.933Z,100420.13
2022-08-30T03:52:26.602Z,100414.66
2022-08-30T03:53:13.586Z,100418.16
2022-08-30T03:54:02.587Z,100422.66
2022-08-30T03:57:06.406Z,100412.81
2022-08-30T03:57:52.809Z,100415.47
2022-08-30T03:58:39.310Z,100421.69
2022-08-30T03:59:27.287Z,100419.28
2022-08-30T04:00:13.658Z,100420.25
2022-08-30T04:00:59.508Z,100417.72
2022-08-30T04:01:45.251Z,100423.91
2022-08-30T04:02:32.995Z,100422.25
2022-08-30T04:04:55.363Z,100416.75
2022-08-30T04:05:47.813Z,100420.13
2022-08-30T04:06:36.843Z,100420.97
2022-08-30T04:07:35.283Z,100420.00
2022-08-30T04:08:29.639Z,100420.97
2022-08-30T04:09:17.381Z,100417.59
2022-08-30T04:10:07.298Z,100421.81
2022-08-30T04:11:02.937Z,100426.16
2022-08-30T04:14:43.894Z,100425.59
2022-08-30T04:15:15.238Z,100428.97
2022-08-30T04:15:46.702Z,100427.31
2022-08-30T04:16:18.879Z,100434.59
2022-08-30T04:16:50.327Z,100437.25
2022-08-30T04:17:21.833Z,100429.84
2022-08-30T04:17:53.554Z,100425.88
2022-08-30T04:18:24.975Z,100428.41
2022-08-30T04:18:56.372Z,100423.63
2022-08-30T04:19:27.727Z,100423.63
2022-08-30T04:19:59.288Z,100428.16
2022-08-30T04:20:31.268Z,100430.25
2022-08-30T04:21:03.023Z,100429.25
2022-08-30T04:21:37.531Z,100431.50
2022-08-30T04:22:14.646Z,100424.47
2022-08-30T04:22:46.081Z,100428.69
2022-08-30T04:23:17.539Z,100422.25
2022-08-30T04:23:49.126Z,100422.25
2022-08-30T04:24:20.516Z,100417.88
2022-08-30T04:24:51.991Z,100421.41
2022-08-30T04:25:23.443Z,100424.06
2022-08-30T04:25:55.037Z,100418.56
2022-08-30T04:26:27.645Z,100419.13
2022-08-30T04:27:00.908Z,100421.41
2022-08-30T04:27:32.380Z,100426.44
2022-08-30T04:28:03.889Z,100427.19
2022-08-30T04:28:35.287Z,100424.63
2022-08-30T04:29:07.004Z,100429.97
2022-08-30T04:29:38.440Z,100421.09
2022-08-30T04:30:10.081Z,100430.94
2022-08-30T04:30:41.859Z,100426.44
2022-08-30T04:31:14.156Z,100426.31
2022-08-30T04:31:46.906Z,100434.47
2022-08-30T04:32:18.363Z,100427.59
2022-08-30T04:32:49.973Z,100426.44
2022-08-30T04:33:21.396Z,100433.63
2022-08-30T04:33:52.948Z,100438.28
2022-08-30T04:34:24.489Z,100429.56
2022-08-30T04:34:58.322Z,100429.81
2022-08-30T04:35:29.745Z,100429.81
2022-08-30T04:36:01.939Z,100433.19
2022-08-30T04:36:33.402Z,100427.03
2022-08-30T04:37:04.828Z,100434.03
2022-08-30T04:37:37.299Z,100425.88
2022-08-30T04:38:08.720Z,100434.59
2022-08-30T04:38:40.342Z,100438.13
2022-08-30T04:39:11.761Z,100428.28
2022-08-30T04:39:43.108Z,100433.63
2022-08-30T04:40:14.578Z,100422.94
2022-08-30T04:40:46.384Z,100430.94
2022-08-30T04:41:18.341Z,100432.66
2022-08-30T04:41:49.726Z,100430.25
2022-08-30T04:42:21.132Z,100430.38
2022-08-30T04:42:52.605Z,100426.56
2022-08-30T04:43:24.441Z,100432.22
2022-08-30T04:43:55.885Z,100435.88
2022-08-30T04:44:27.412Z,100436.56
2022-08-30T04:45:01.846Z,100440.25
2022-08-30T04:45:33.391Z,100430.09
2022-08-30T04:46:05.596Z,100433.19
2022-08-30T04:46:37.027Z,100431.22
2022-08-30T04:47:16.082Z,100435.72
2022-08-30T04:47:47.501Z,100432.09
2022-08-30T04:48:19.041Z,100438.41
2022-08-30T04:48:50.437Z,100436.56
2022-08-30T04:49:21.849Z,100426.16
2022-08-30T04:49:53.409Z,100434.91
2022-08-30T04:50:24.789Z,100434.16
2022-08-30T04:50:56.168Z,100433.19
2022-08-30T04:51:27.660Z,100432.78
2022-08-30T04:51:59.078Z,100438.28
2022-08-30T04:52:30.629Z,100433.75
2022-08-30T04:53:02.199Z,100427.59
2022-08-30T04:53:33.995Z,100432.94
2022-08-30T04:54:05.622Z,100436.84
2022-08-30T04:54:37.066Z,100431.91
2022-08-30T04:55:08.717Z,100439.94
2022-08-30T04:55:40.427Z,100437.44
2022-08-30T04:56:13.443Z,100434.59
2022-08-30T04:56:44.953Z,100439.94
2022-08-30T04:57:16.309Z,100439.09
2022-08-30T04:57:47.802Z,100444.72
2022-08-30T04:58:19.228Z,100444.03
2022-08-30T04:58:51.511Z,100436.13
2022-08-30T04:59:23.147Z,100445.13
2022-08-30T04:59:54.615Z,100446.97
2022-08-30T05:00:26.003Z,100449.22
2022-08-30T05:00:57.496Z,100443.88
2022-08-30T05:01:29.601Z,100450.19
2022-08-30T05:02:01.112Z,100449.78
2022-08-30T05:02:32.631Z,100448.13
2022-08-30T05:03:04.214Z,100443.75
2022-08-30T05:03:35.610Z,100451.63
2022-08-30T05:04:07.024Z,100453.47
2022-08-30T05:04:38.468Z,100451.63
2022-08-30T05:05:10.279Z,100454.28
2022-08-30T05:05:49.008Z,100447.94
2022-08-30T05:06:20.633Z,100452.59
2022-08-30T05:06:52.072Z,100448.25
2022-08-30T05:07:23.432Z,100452.59
2022-08-30T05:07:55.510Z,100458.06
2022-08-30T05:08:26.920Z,100461.63
2022-08-30T05:08:58.331Z,100461.63
2022-08-30T05:09:29.727Z,100456.97
2022-08-30T05:10:01.124Z,100455.41
2022-08-30T05:10:32.539Z,100461.03
2022-08-30T05:11:04.447Z,100458.47
2022-08-30T05:11:35.874Z,100453.72
2022-08-30T05:12:07.374Z,100456.28
2022-08-30T05:12:39.134Z,100448.13
2022-08-30T05:13:10.860Z,100455.28
2022-08-30T05:13:42.765Z,100445.59
2022-08-30T05:14:14.195Z,100458.94
2022-08-30T05:14:45.673Z,100452.88
2022-08-30T05:15:17.169Z,100466.97
2022-08-30T05:15:48.632Z,100465.53
2022-08-30T05:16:20.247Z,100456.41
2022-08-30T05:16:51.674Z,100461.75
2022-08-30T05:17:23.214Z,100459.06
2022-08-30T05:17:54.622Z,100463.56
2022-08-30T05:18:26.195Z,100454.84
2022-08-30T05:18:57.565Z,100453.88
2022-08-30T05:19:31.236Z,100458.22
2022-08-30T05:20:02.709Z,100456.81
2022-08-30T05:20:34.328Z,100454.84
2022-08-30T05:21:09.683Z,100460.88
2022-08-30T05:21:41.229Z,100448.53
2022-08-30T05:22:12.815Z,100455.69
2022-08-30T05:22:44.341Z,100458.47
2022-08-30T05:23:15.946Z,100456.53
2022-08-30T05:23:47.526Z,100460.19
2022-08-30T05:24:19.163Z,100449.50
2022-08-30T05:24:50.530Z,100460.88
2022-08-30T05:25:23.095Z,100460.88
2022-08-30T05:25:54.533Z,100458.34
2022-08-30T05:26:26.840Z,100453.13
2022-08-30T05:26:58.619Z,100455.53
2022-08-30T05:27:30.006Z,100454.72
2022-08-30T05:28:01.443Z,100459.34
2022-08-30T05:28:33.082Z,100457.38
2022-08-30T05:29:04.545Z,100455.69
2022-08-30T05:29:35.913Z,100463.13
2022-08-30T05:30:07.647Z,100458.63
2022-08-30T05:30:39.020Z,100460.19
2022-08-30T05:31:17.464Z,100456.81
2022-08-30T05:31:48.946Z,100463.00
2022-08-30T05:32:20.438Z,100463.97
2022-08-30T05:32:52.469Z,100469.03
2022-08-30T05:33:24.060Z,100464.81
2022-08-30T05:33:55.567Z,100471.00
2022-08-30T05:34:28.472Z,100467.22
2022-08-30T05:34:59.919Z,100466.22
2022-08-30T05:35:31.404Z,100466.22
2022-08-30T05:36:05.617Z,100469.75
2022-08-30T05:36:37.098Z,100469.75
2022-08-30T05:37:08.482Z,100465.25
2022-08-30T05:37:39.837Z,100466.22
2022-08-30T05:38:11.203Z,100465.66
2022-08-30T05:38:43.079Z,100470.03
2022-08-30T05:39:15.525Z,100465.53
2022-08-30T05:39:52.417Z,100470.03
2022-08-30T05:40:26.923Z,100471.84
2022-08-30T05:41:01.729Z,100471.97
2022-08-30T05:41:36.975Z,100470.88
2022-08-30T05:42:08.444Z,100473.53
2022-08-30T05:42:39.874Z,100475.50
2022-08-30T05:43:11.237Z,100470.03
2022-08-30T05:43:42.609Z,100464.81
2022-08-30T05:44:13.980Z,100474.66
2022-08-30T05:44:45.568Z,100465.09
2022-08-30T05:45:17.229Z,100468.19
2022-08-30T05:45:48.649Z,100464.56
2022-08-30T05:46:20.191Z,100464.69
2022-08-30T05:46:51.817Z,100457.38
2022-08-30T05:47:23.336Z,100461.75
2022-08-30T05:47:54.713Z,100469.16
2022-08-30T05:48:26.302Z,100457.91
2022-08-30T05:48:57.749Z,100464.25
2022-08-30T05:49:29.179Z,100455.09
2022-08-30T05:50:00.637Z,100467.50
2022-08-30T05:50:33.386Z,100466.50
2022-08-30T05:51:06.537Z,100470.88
2022-08-30T05:51:43.269Z,100464.69
2022-08-30T05:52:15.158Z,100470.44
2022-08-30T05:52:46.818Z,100469.16
2022-08-30T05:53:18.213Z,100470.16
2022-08-30T05:53:49.744Z,100468.47
2022-08-30T05:54:21.407Z,100472.84
2022-08-30T05:54:53.474Z,100470.03
2022-08-30T05:55:24.966Z,100469.91
2022-08-30T05:55:56.336Z,100473.41
2022-08-30T05:56:28.612Z,100475.25
2022-08-30T05:57:00.018Z,100464.56
2022-08-30T05:57:32.261Z,100470.88
2022-08-30T05:58:03.654Z,100470.88
2022-08-30T05:58:35.034Z,100470.31
2022-08-30T05:59:06.695Z,100474.50
2022-08-30T05:59:38.313Z,100478.88
2022-08-30T06:00:11.451Z,100477.91
2022-08-30T06:00:43.041Z,100477.91
2022-08-30T06:01:23.214Z,100471.69
2022-08-30T06:01:56.219Z,100476.22
2022-08-30T06:02:27.650Z,100483.38
2022-08-30T06:02:59.115Z,100472.84
2022-08-30T06:03:30.523Z,100480.72
2022-08-30T06:04:04.196Z,100479.84
2022-08-30T06:04:35.777Z,100478.19
2022-08-30T06:05:07.379Z,100484.38
2022-08-30T06:05:39.139Z,100484.38
2022-08-30T06:06:10.617Z,100480.84
2022-08-30T06:06:42.453Z,100479.16
2022-08-30T06:07:15.830Z,100479.28
2022-08-30T06:07:48.617Z,100477.63
2022-08-30T06:08:20.161Z,100476.47
2022-08-30T06:08:51.543Z,100475.66
2022-08-30T06:09:23.131Z,100475.50
2022-08-30T06:09:54.522Z,100473.69
2022-08-30T06:10:25.893Z,100481.81
2022-08-30T06:10:57.275Z,100478.19
2022-08-30T06:11:28.736Z,100474.50
2022-08-30T06:12:00.110Z,100476.75
2022-08-30T06:12:31.496Z,100477.63
2022-08-30T06:13:02.868Z,100472.28
2022-08-30T06:13:34.326Z,100474.81
2022-08-30T06:14:05.738Z,100471.97
2022-08-30T06:14:37.338Z,100470.88
2022-08-30T06:15:09.162Z,100470.16
2022-08-30T06:15:40.694Z,100470.03
2022-08-30T06:16:12.687Z,100467.50
2022-08-30T06:16:44.233Z,100468.34
2022-08-30T06:17:15.605Z,100474.50
2022-08-30T06:17:47.519Z,100473.69
2022-08-30T06:18:18.939Z,100473.69
2022-08-30T06:19:00.278Z,100474.50
2022-08-30T06:19:31.771Z,100478.31
2022-08-30T06:20:03.507Z,100479.03
2022-08-30T06:20:38.998Z,100477.31
2022-08-30T06:21:24.048Z,100480.16
2022-08-30T06:21:55.493Z,100482.66
2022-08-30T06:22:26.881Z,100482.66
2022-08-30T06:22:58.342Z,100482.66
2022-08-30T06:23:29.749Z,100487.16
2022-08-30T06:24:01.239Z,100485.31
2022-08-30T06:24:55.939Z,100487.16
2022-08-30T06:25:26.980Z,100484.63
2022-08-30T06:26:12.847Z,100490.84
2022-08-30T06:26:44.655Z,100485.50
2022-08-30T06:27:16.120Z,100491.09
2022-08-30T06:27:47.691Z,100489.00
2022-08-30T06:28:19.302Z,100490.53
2022-08-30T06:28:50.823Z,100488.00
2022-08-30T06:29:22.292Z,100488.88
2022-08-30T06:29:53.793Z,100489.84
2022-08-30T06:30:25.188Z,100486.19
2022-08-30T06:30:56.621Z,100490.53
2022-08-30T06:31:28.072Z,100490.53
2022-08-30T06:31:59.506Z,100490.53
2022-08-30T06:32:30.879Z,100495.03
2022-08-30T06:33:02.309Z,100492.25
2022-08-30T06:33:33.934Z,100491.53
2022-08-30T06:34:05.329Z,100487.88
2022-08-30T06:34:36.882Z,100494.22
2022-08-30T06:35:08.392Z,100488.16
2022-08-30T06:35:56.665Z,100489.13
2022-08-30T06:36:30.192Z,100488.16
2022-08-30T06:37:01.578Z,100498.13
2022-08-30T06:37:33.399Z,100499.81
2022-08-30T06:38:04.864Z,100492.91
2022-08-30T06:38:36.379Z,100493.03
2022-08-30T06:39:07.800Z,100497.56
2022-08-30T06:39:39.247Z,100487.69
2022-08-30T06:40:10.954Z,100496.44
2022-08-30T06:40:42.483Z,100492.06
2022-08-30T06:41:14.790Z,100494.75
2022-08-30T06:41:46.355Z,100499.25
2022-08-30T06:42:17.982Z,100492.31
2022-08-30T06:42:49.452Z,100491.25
2022-08-30T06:43:20.845Z,100489.53
2022-08-30T06:43:52.268Z,100494.75
2022-08-30T06:44:26.040Z,100493.78
2022-08-30T06:44:59.761Z,100495.59
2022-08-30T06:45:31.110Z,100491.09
2022-08-30T06:46:03.996Z,100490.09
2022-08-30T06:46:35.988Z,100490.09
2022-08-30T06:47:07.431Z,100488.31
2022-08-30T06:47:39.300Z,100484.75
2022-08-30T06:48:10.675Z,100492.78
2022-08-30T06:48:43.108Z,100490.25
2022-08-30T06:49:16.582Z,100488.44
2022-08-30T06:49:47.993Z,100494.75
2022-08-30T06:50:19.406Z,100490.38
2022-08-30T06:50:53.968Z,100492.06
2022-08-30T06:51:26.657Z,100489.53
2022-08-30T06:51:58.059Z,100492.22
2022-08-30T06:52:29.748Z,100488.66
2022-08-30T06:53:02.757Z,100492.22
2022-08-30T06:53:34.475Z,100488.66
2022-08-30T06:54:06.132Z,100490.47
2022-08-30T06:54:42.241Z,100483.31
2022-08-30T06:55:14.417Z,100487.69
2022-08-30T06:55:45.832Z,100490.38
2022-08-30T06:56:17.322Z,100486.00
2022-08-30T06:56:58.165Z,100484.28
2022-08-30T06:57:30.209Z,100487.09
2022-08-30T06:58:01.857Z,100488.09
2022-08-30T06:58:33.379Z,100491.59
2022-08-30T06:59:05.028Z,100487.22
2022-08-30T06:59:36.371Z,100489.91
2022-08-30T07:00:08.800Z,100483.59
2022-08-30T07:00:40.292Z,100486.28
2022-08-30T07:01:12.794Z,100486.97
2022-08-30T07:01:44.260Z,100485.13
2022-08-30T07:02:16.250Z,100484.28
2022-08-30T07:02:47.817Z,100485.25
2022-08-30T07:03:19.381Z,100478.13
2022-08-30T07:03:50.946Z,100482.59
2022-08-30T07:04:22.764Z,100475.59
2022-08-30T07:04:54.235Z,100479.09
2022-08-30T07:05:25.690Z,100491.34
2022-08-30T07:05:57.125Z,100488.81
2022-08-30T07:06:28.658Z,100488.66
2022-08-30T07:07:00.034Z,100485.13
2022-08-30T07:07:31.452Z,100478.84
2022-08-30T07:08:02.992Z,100480.41
2022-08-30T07:08:34.373Z,100484.19
2022-08-30T07:09:05.825Z,100488.81
2022-08-30T07:09:37.161Z,100486.00
2022-08-30T07:10:08.729Z,100489.53
2022-08-30T07:10:40.496Z,100484.06
2022-08-30T07:11:11.948Z,100485.50
2022-08-30T07:11:43.411Z,100486.72
2022-08-30T07:12:14.940Z,100487.69
2022-08-30T07:12:46.335Z,100486.00
2022-08-30T07:13:17.969Z,100489.41
2022-08-30T07:13:49.437Z,100489.41
2022-08-30T07:14:21.190Z,100486.97
2022-08-30T07:14:52.585Z,100484.28
2022-08-30T07:15:24.222Z,100486.88
2022-08-30T07:15:55.714Z,100486.00
2022-08-30T07:16:27.293Z,100486.88
2022-08-30T07:16:59.000Z,100491.34
2022-08-30T07:17:34.512Z,100489.63
2022-08-30T07:18:06.389Z,100491.34
2022-08-30T07:18:37.815Z,100484.44
2022-08-30T07:19:09.324Z,100484.28
2022-08-30T07:19:51.803Z,100491.34
2022-08-30T07:20:23.390Z,100487.94
2022-08-30T07:20:54.907Z,100490.47
2022-08-30T07:21:29.940Z,100491.47
2022-08-30T07:22:01.363Z,100484.28
2022-08-30T07:22:33.315Z,100494.16
2022-08-30T07:23:04.753Z,100489.78
2022-08-30T07:23:36.176Z,100488.22
2022-08-30T07:24:08.932Z,100495.78
2022-08-30T07:26:06.693Z,100486.13
2022-08-30T07:26:58.695Z,100488.81
2022-08-30T07:27:52.053Z,100485.13
2022-08-30T07:36:05.246Z,100479.09
2022-08-30T07:36:55.584Z,100483.59
2022-08-30T07:37:48.597Z,100479.50
2022-08-30T07:38:43.419Z,100486.53
2022-08-30T07:39:41.669Z,100483.72
2022-08-30T07:43:43.695Z,100490.25
2022-08-30T07:44:23.139Z,100490.38
2022-08-30T07:45:01.385Z,100489.41
2022-08-30T07:45:38.145Z,100490.47
2022-08-30T07:46:14.735Z,100486.72
2022-08-30T07:46:51.304Z,100488.66
2022-08-30T07:47:28.146Z,100492.06
2022-08-30T07:48:05.186Z,100483.22
2022-08-30T07:48:41.982Z,100493.03
2022-08-30T07:49:21.356Z,100493.91
2022-08-30T07:50:00.156Z,100490.38
2022-08-30T07:50:40.348Z,100486.59
2022-08-30T07:51:30.356Z,100491.69
2022-08-30T07:52:13.916Z,100490.53
2022-08-30T07:52:51.945Z,100491.41
2022-08-30T07:53:28.293Z,100489.56
2022-08-30T07:54:05.231Z,100491.41
2022-08-30T07:54:42.467Z,100486.63
2022-08-30T07:55:19.186Z,100491.97
2022-08-30T07:55:56.896Z,100483.25
2022-08-30T07:56:34.479Z,100494.78
2022-08-30T07:57:12.061Z,100496.75
2022-08-30T07:57:52.759Z,100491.53
2022-08-30T07:58:29.744Z,100490.53
2022-08-30T07:59:06.540Z,100485.06
2022-08-30T07:59:43.151Z,100491.53
2022-08-30T08:00:19.991Z,100489.97
2022-08-30T08:00:58.351Z,100485.50
2022-08-30T08:01:35.134Z,100489.84
2022-08-30T08:02:12.851Z,100488.88
2022-08-30T08:02:51.257Z,100487.16
2022-08-30T08:03:28.334Z,100484.63
2022-08-30T08:04:05.332Z,100490.84
2022-08-30T08:04:42.428Z,100493.66
2022-08-30T08:05:22.053Z,100492.50
2022-08-30T08:06:01.694Z,100492.78
2022-08-30T08:06:41.828Z,100496.31
2022-08-30T08:07:27.784Z,100494.22
2022-08-30T08:08:15.151Z,100494.78
2022-08-30T08:08:53.239Z,100494.91
2022-08-30T08:09:31.473Z,100495.88
2022-08-30T08:10:12.219Z,100494.34
2022-08-30T08:10:49.913Z,100492.50
2022-08-30T08:11:30.396Z,100493.22
2022-08-30T08:12:09.088Z,100496.75
2022-08-30T08:12:46.647Z,100495.88
2022-08-30T08:13:24.459Z,100502.94